Terminal Aerodrome Forecast
Issued by NWS

Current Version | Previous Version | Text Only | Print | Product List | Glossary On
Versions: 1 2 3 4 5 6 7 8 9 10 11 12 13
337
FTPA31 PHFO 301729
TAFHMK
TAF
PHMK 301729Z 3018/0118 04011KT P6SM FEW025 BKN040
     FM302000 04013G20KT P6SM FEW025 SCT045
     FM010600 04010KT P6SM FEW025 SCT040=

USA.gov is the U.S. government's official web portal to all federal, state and local government web resources and services.